createdAt,value
2023-05-01T00:01:12.337Z,100617.06
2023-05-01T00:03:40.042Z,100610.75
2023-05-01T00:06:09.109Z,100609.81
2023-05-01T00:08:36.799Z,100608.13
2023-05-01T00:11:04.780Z,100608.19
2023-05-01T00:13:32.411Z,100604.41
2023-05-01T00:15:59.940Z,100600.94
2023-05-01T00:18:27.455Z,100601.09
2023-05-01T00:20:54.925Z,100586.72
2023-05-01T00:23:23.802Z,100597.53
2023-05-01T00:25:51.297Z,100590.22
2023-05-01T00:28:19.263Z,100588.63
2023-05-01T00:30:47.172Z,100591.97
2023-05-01T00:33:14.737Z,100590.25
2023-05-01T00:35:44.884Z,100586.91
2023-05-01T00:38:12.615Z,100587.81
2023-05-01T00:40:45.153Z,100576.25
2023-05-01T00:43:12.962Z,100575.41
2023-05-01T00:45:41.281Z,100570.03
2023-05-01T00:48:09.006Z,100568.22
2023-05-01T00:50:36.690Z,100570.06
2023-05-01T00:53:04.267Z,100566.56
2023-05-01T00:55:32.447Z,100560.34
2023-05-01T00:58:01.535Z,100565.66
2023-05-01T01:00:29.589Z,100563.81
2023-05-01T01:02:57.268Z,100561.22
2023-05-01T01:05:28.327Z,100558.53
2023-05-01T01:08:01.474Z,100559.41
2023-05-01T01:10:36.992Z,100559.44
2023-05-01T01:13:11.704Z,100546.88
2023-05-01T01:15:45.591Z,100539.94
2023-05-01T01:18:17.917Z,100539.06
2023-05-01T01:20:48.030Z,100535.50
2023-05-01T01:23:45.320Z,100537.19
2023-05-01T01:26:20.429Z,100540.75
2023-05-01T01:29:08.642Z,100539.66
2023-05-01T01:31:42.065Z,100534.47
2023-05-01T01:34:14.505Z,100539.81
2023-05-01T01:36:45.090Z,100532.59
2023-05-01T01:39:17.387Z,100528.63
2023-05-01T01:41:50.770Z,100536.31
2023-05-01T01:44:23.484Z,100527.41
2023-05-01T01:46:52.363Z,100523.94
2023-05-01T01:49:24.366Z,100524.84
2023-05-01T01:51:55.150Z,100515.81
2023-05-01T01:54:26.230Z,100514.78
2023-05-01T01:56:54.461Z,100512.19
2023-05-01T01:59:22.781Z,100505.91
2023-05-01T02:01:51.235Z,100504.34
2023-05-01T02:04:19.287Z,100495.34
2023-05-01T02:06:48.984Z,100494.41
2023-05-01T02:09:17.709Z,100489.41
2023-05-01T02:11:46.408Z,100484.56
2023-05-01T02:14:14.499Z,100477.69
2023-05-01T02:16:42.900Z,100481.31
2023-05-01T02:19:10.580Z,100480.19
2023-05-01T02:21:38.255Z,100469.59
2023-05-01T02:24:08.316Z,100471.25
2023-05-01T02:26:41.657Z,100479.59
2023-05-01T02:29:09.352Z,100482.88
2023-05-01T02:31:36.980Z,100471.31
2023-05-01T02:34:04.461Z,100476.72
2023-05-01T02:36:33.338Z,100468.72
2023-05-01T02:39:00.872Z,100459.00
2023-05-01T02:41:29.741Z,100460.59
2023-05-01T02:44:01.574Z,100462.41
2023-05-01T02:46:29.247Z,100456.81
2023-05-01T02:48:58.388Z,100455.94
2023-05-01T02:51:26.230Z,100451.63
2023-05-01T02:53:54.066Z,100452.53
2023-05-01T02:56:21.792Z,100442.13
2023-05-01T02:58:50.567Z,100432.84
2023-05-01T03:01:18.120Z,100434.56
2023-05-01T03:03:45.701Z,100429.38
2023-05-01T03:06:21.417Z,100433.97
2023-05-01T03:08:48.923Z,100427.66
2023-05-01T03:11:16.536Z,100418.72
2023-05-01T03:13:44.663Z,100416.47
2023-05-01T03:16:13.492Z,100417.16
2023-05-01T03:18:40.995Z,100420.66
2023-05-01T03:21:08.895Z,100416.56
2023-05-01T03:23:38.303Z,100411.19
2023-05-01T03:26:07.726Z,100409.50
2023-05-01T03:28:35.216Z,100410.34
2023-05-01T03:31:02.716Z,100407.63
2023-05-01T03:33:31.656Z,100406.16
2023-05-01T03:36:03.674Z,100409.81
2023-05-01T03:38:31.623Z,100403.41
2023-05-01T03:40:59.283Z,100406.50
2023-05-01T03:43:26.887Z,100399.47
2023-05-01T03:45:54.450Z,100395.03
2023-05-01T03:48:22.222Z,100387.47
2023-05-01T03:50:51.035Z,100391.16
2023-05-01T03:53:18.574Z,100385.16
2023-05-01T03:55:46.082Z,100391.44
2023-05-01T03:58:13.545Z,100384.53
2023-05-01T04:00:41.669Z,100388.03
2023-05-01T04:03:09.254Z,100389.88
2023-05-01T04:05:36.843Z,100382.00
2023-05-01T04:08:06.335Z,100382.78
2023-05-01T04:10:33.820Z,100376.44
2023-05-01T04:13:01.470Z,100385.06
2023-05-01T04:15:29.050Z,100380.41
2023-05-01T04:17:56.861Z,100383.09
2023-05-01T04:20:24.445Z,100385.03
2023-05-01T04:22:52.076Z,100371.88
2023-05-01T04:25:23.125Z,100385.25
2023-05-01T04:27:50.969Z,100377.34
2023-05-01T04:30:18.486Z,100375.75
2023-05-01T04:32:46.196Z,100365.09
2023-05-01T04:35:13.840Z,100371.41
2023-05-01T04:37:41.339Z,100377.38
2023-05-01T04:40:11.594Z,100370.41
2023-05-01T04:42:40.734Z,100363.41
2023-05-01T04:45:08.815Z,100363.53
2023-05-01T04:47:36.308Z,100357.38
2023-05-01T04:50:04.295Z,100353.88
2023-05-01T04:52:31.818Z,100345.03
2023-05-01T04:54:59.317Z,100348.56
2023-05-01T04:57:27.057Z,100339.81
2023-05-01T04:59:56.137Z,100338.97
2023-05-01T05:02:24.232Z,100337.22
2023-05-01T05:04:53.828Z,100339.91
2023-05-01T05:07:21.414Z,100329.28
2023-05-01T05:09:48.931Z,100334.56
2023-05-01T05:12:16.464Z,100327.47
2023-05-01T05:14:43.994Z,100326.59
2023-05-01T05:17:12.791Z,100322.13
2023-05-01T05:19:40.821Z,100328.25
2023-05-01T05:22:08.321Z,100321.94
2023-05-01T05:24:35.817Z,100327.09
2023-05-01T05:27:04.057Z,100324.28
2023-05-01T05:29:32.861Z,100324.13
2023-05-01T05:32:00.470Z,100323.50
2023-05-01T05:34:29.300Z,100320.97
2023-05-01T05:36:56.831Z,100325.34
2023-05-01T05:39:24.653Z,100321.72
2023-05-01T05:41:53.791Z,100322.53
2023-05-01T05:44:21.413Z,100317.66
2023-05-01T05:46:48.936Z,100322.78
2023-05-01T05:49:16.437Z,100314.94
2023-05-01T05:51:45.355Z,100312.94
2023-05-01T05:54:12.862Z,100306.59
2023-05-01T05:56:40.345Z,100304.78
2023-05-01T05:59:07.980Z,100309.69
2023-05-01T06:01:37.234Z,100299.84
2023-05-01T06:04:04.908Z,100306.28
2023-05-01T06:06:32.959Z,100307.06
2023-05-01T06:09:03.307Z,100306.19
2023-05-01T06:11:30.826Z,100302.50
2023-05-01T06:13:58.333Z,100293.31
2023-05-01T06:16:26.014Z,100291.72
2023-05-01T06:18:53.551Z,100288.53
2023-05-01T06:21:21.287Z,100286.63
2023-05-01T06:23:48.863Z,100293.00
2023-05-01T06:26:17.634Z,100280.25
2023-05-01T06:28:45.215Z,100285.59
2023-05-01T06:31:12.746Z,100285.59
2023-05-01T06:33:40.284Z,100284.56
2023-05-01T06:36:08.259Z,100285.91
2023-05-01T06:38:35.786Z,100283.19
2023-05-01T06:41:03.294Z,100284.84
2023-05-01T06:43:32.572Z,100275.94
2023-05-01T06:46:00.278Z,100278.78
2023-05-01T06:48:27.803Z,100277.91
2023-05-01T06:50:56.627Z,100277.75
2023-05-01T06:53:24.115Z,100276.22
2023-05-01T06:55:51.686Z,100277.63
2023-05-01T06:58:23.887Z,100281.59
2023-05-01T07:00:54.419Z,100277.97
2023-05-01T07:03:22.243Z,100272.28
2023-05-01T07:05:49.782Z,100271.50
2023-05-01T07:08:17.283Z,100267.09
2023-05-01T07:10:44.893Z,100268.53
2023-05-01T07:13:12.538Z,100269.16
2023-05-01T07:15:40.020Z,100264.28
2023-05-01T07:18:09.034Z,100272.81
2023-05-01T07:20:36.826Z,100269.16
2023-05-01T07:23:07.176Z,100261.75
2023-05-01T07:25:36.184Z,100267.41
2023-05-01T07:28:04.629Z,100258.25
2023-05-01T07:30:33.157Z,100253.75
2023-05-01T07:33:00.762Z,100250.38
2023-05-01T07:35:29.822Z,100249.56
2023-05-01T07:37:57.301Z,100250.44
2023-05-01T07:40:25.005Z,100241.31
2023-05-01T07:42:54.388Z,100245.06
2023-05-01T07:45:22.183Z,100242.63
2023-05-01T07:47:50.046Z,100237.44
2023-05-01T07:50:18.002Z,100243.31
2023-05-01T07:52:46.864Z,100239.44
2023-05-01T07:55:14.415Z,100237.03
2023-05-01T07:57:42.079Z,100243.75
2023-05-01T08:00:10.638Z,100230.00
2023-05-01T08:02:38.264Z,100220.94
2023-05-01T08:05:06.706Z,100222.03
2023-05-01T08:07:34.343Z,100215.28
2023-05-01T08:10:03.316Z,100217.03
2023-05-01T08:12:31.968Z,100214.34
2023-05-01T08:14:59.516Z,100209.63
2023-05-01T08:17:27.148Z,100207.44
2023-05-01T08:19:56.641Z,100200.00
2023-05-01T08:22:24.471Z,100200.28
2023-05-01T08:24:52.011Z,100196.97
2023-05-01T08:27:21.046Z,100196.47
2023-05-01T08:29:52.447Z,100187.94
2023-05-01T08:32:20.012Z,100191.66
2023-05-01T08:34:47.592Z,100194.78
2023-05-01T08:37:19.017Z,100188.28
2023-05-01T08:39:46.554Z,100196.34
2023-05-01T08:42:14.576Z,100184.47
2023-05-01T08:44:43.454Z,100182.41
2023-05-01T08:47:15.694Z,100178.94
2023-05-01T08:49:44.145Z,100185.50
2023-05-01T08:52:12.558Z,100181.44
2023-05-01T08:54:43.083Z,100174.94
2023-05-01T08:57:13.780Z,100179.09
2023-05-01T08:59:43.093Z,100172.63
2023-05-01T09:02:11.255Z,100170.44
2023-05-01T09:04:40.556Z,100166.97
2023-05-01T09:07:08.445Z,100165.66
2023-05-01T09:09:36.682Z,100162.38
2023-05-01T09:12:10.471Z,100162.81
2023-05-01T09:14:38.008Z,100160.75
2023-05-01T09:17:06.858Z,100157.53
2023-05-01T09:19:34.387Z,100152.81
2023-05-01T09:22:01.903Z,100154.69
2023-05-01T09:24:29.394Z,100145.56
2023-05-01T09:26:58.147Z,100150.94
2023-05-01T09:29:38.674Z,100142.56
2023-05-01T09:32:19.187Z,100141.75
2023-05-01T09:34:47.310Z,100136.91
2023-05-01T09:37:27.183Z,100133.47
2023-05-01T09:40:05.588Z,100132.03
2023-05-01T09:42:34.114Z,100125.47
2023-05-01T09:45:02.016Z,100123.50
2023-05-01T09:47:31.522Z,100123.00
2023-05-01T09:50:00.539Z,100120.88
2023-05-01T09:52:28.859Z,100114.94
2023-05-01T09:55:16.385Z,100109.63
2023-05-01T09:57:45.386Z,100112.47
2023-05-01T10:00:15.518Z,100107.38
2023-05-01T10:02:47.990Z,100118.34
2023-05-01T10:05:16.279Z,100106.63
2023-05-01T10:07:57.202Z,100111.94
2023-05-01T10:10:25.015Z,100112.50
2023-05-01T10:12:52.503Z,100108.75
2023-05-01T10:15:26.095Z,100100.13
2023-05-01T10:17:56.839Z,100097.03
2023-05-01T10:20:24.407Z,100096.88
2023-05-01T10:22:51.940Z,100087.56
2023-05-01T10:25:20.482Z,100082.34
2023-05-01T10:27:48.450Z,100091.97
2023-05-01T10:30:16.461Z,100089.41
2023-05-01T10:32:44.130Z,100081.97
2023-05-01T10:35:16.510Z,100085.13
2023-05-01T10:37:46.415Z,100086.34
2023-05-01T10:40:45.347Z,100071.41
2023-05-01T10:43:17.405Z,100075.13
2023-05-01T10:45:45.501Z,100064.63
2023-05-01T10:48:13.012Z,100065.00
2023-05-01T10:51:12.934Z,100063.59
2023-05-01T10:53:41.293Z,100061.44
2023-05-01T10:56:43.856Z,100046.00
2023-05-01T10:59:12.929Z,100046.03
2023-05-01T11:01:44.671Z,100052.91
2023-05-01T11:04:50.766Z,100041.78
2023-05-01T11:07:19.553Z,100038.47
2023-05-01T11:09:49.174Z,100043.63
2023-05-01T11:12:54.217Z,100043.13
2023-05-01T11:15:32.419Z,100036.81
2023-05-01T11:18:00.714Z,100022.31
2023-05-01T11:20:54.530Z,100028.47
2023-05-01T11:23:28.008Z,100025.81
2023-05-01T11:26:04.604Z,100010.81
2023-05-01T11:28:34.870Z,100014.63
2023-05-01T11:31:03.306Z,100017.72
2023-05-01T11:33:31.804Z,100006.47
2023-05-01T11:36:01.104Z,100014.56
2023-05-01T11:38:28.690Z,100013.06
2023-05-01T11:40:59.494Z,100006.06
2023-05-01T11:43:27.366Z,99992.56
2023-05-01T11:46:02.258Z,99996.22
2023-05-01T11:48:31.196Z,100001.72
2023-05-01T11:50:58.749Z,99987.22
2023-05-01T11:53:26.322Z,99989.47
2023-05-01T11:55:54.467Z,99979.13
2023-05-01T11:58:32.994Z,99979.31
2023-05-01T12:01:01.827Z,99983.59
2023-05-01T12:03:29.803Z,99983.88
2023-05-01T12:05:57.432Z,99976.59
2023-05-01T12:08:25.411Z,99971.22
2023-05-01T12:10:53.830Z,99978.13
2023-05-01T12:13:21.747Z,99981.63
2023-05-01T12:15:52.447Z,99975.38
2023-05-01T12:18:22.362Z,99966.06
2023-05-01T12:20:52.059Z,99966.72
2023-05-01T12:23:20.702Z,99963.34
2023-05-01T12:25:48.208Z,99952.94
2023-05-01T12:28:18.133Z,99947.88
2023-05-01T12:30:46.408Z,99959.03
2023-05-01T12:33:15.142Z,99955.41
2023-05-01T12:35:46.570Z,99948.97
2023-05-01T12:38:15.685Z,99950.78
2023-05-01T12:40:53.343Z,99946.06
2023-05-01T12:43:21.538Z,99946.88
2023-05-01T12:45:52.954Z,99951.28
2023-05-01T12:48:22.373Z,99942.16
2023-05-01T12:50:54.601Z,99943.88
2023-05-01T12:53:23.185Z,99937.50
2023-05-01T12:55:51.762Z,99936.16
2023-05-01T12:58:19.485Z,99935.31
2023-05-01T13:00:49.153Z,99933.94
2023-05-01T13:03:18.173Z,99928.56
2023-05-01T13:05:57.972Z,99926.03
2023-05-01T13:08:31.177Z,99924.97
2023-05-01T13:11:00.413Z,99927.06
2023-05-01T13:13:29.235Z,99927.41
2023-05-01T13:16:05.942Z,99916.78
2023-05-01T13:18:34.161Z,99911.38
2023-05-01T13:21:10.849Z,99908.06
2023-05-01T13:23:39.015Z,99911.28
2023-05-01T13:26:07.391Z,99907.56
2023-05-01T13:28:36.252Z,99904.00
2023-05-01T13:31:04.290Z,99901.13
2023-05-01T13:33:32.537Z,99899.06
2023-05-01T13:36:00.808Z,99908.19
2023-05-01T13:38:31.594Z,99899.78
2023-05-01T13:40:59.109Z,99907.28
2023-05-01T13:43:26.825Z,99906.59
2023-05-01T13:45:58.955Z,99898.56
2023-05-01T13:48:26.504Z,99901.88
2023-05-01T13:50:53.974Z,99893.66
2023-05-01T13:53:21.846Z,99888.13
2023-05-01T13:55:50.650Z,99888.91
2023-05-01T13:58:18.163Z,99896.22
2023-05-01T14:00:45.794Z,99890.63
2023-05-01T14:03:13.701Z,99884.97
2023-05-01T14:05:41.238Z,99882.34
2023-05-01T14:08:10.806Z,99883.69
2023-05-01T14:10:38.437Z,99888.41
2023-05-01T14:13:07.728Z,99881.66
2023-05-01T14:15:35.271Z,99884.25
2023-05-01T14:18:06.740Z,99882.16
2023-05-01T14:20:34.339Z,99876.00
2023-05-01T14:23:01.935Z,99867.53
2023-05-01T14:25:31.272Z,99872.00
2023-05-01T14:28:00.831Z,99858.91
2023-05-01T14:30:33.452Z,99865.66
2023-05-01T14:33:03.279Z,99868.19
2023-05-01T14:35:31.171Z,99861.31
2023-05-01T14:38:12.910Z,99854.78
2023-05-01T14:40:41.774Z,99856.28
2023-05-01T14:43:10.420Z,99856.88
2023-05-01T14:45:41.846Z,99862.03
2023-05-01T14:48:09.853Z,99860.38
2023-05-01T14:50:37.897Z,99850.31
2023-05-01T14:53:05.854Z,99848.59
2023-05-01T14:55:34.739Z,99845.56
2023-05-01T14:58:02.530Z,99843.25
2023-05-01T15:00:30.022Z,99844.38
2023-05-01T15:02:59.402Z,99859.81
2023-05-01T15:05:28.346Z,99859.75
2023-05-01T15:07:57.307Z,99849.84
2023-05-01T15:10:24.818Z,99851.31
2023-05-01T15:12:52.342Z,99855.66
2023-05-01T15:15:19.946Z,99854.41
2023-05-01T15:17:47.511Z,99853.78
2023-05-01T15:20:16.652Z,99843.94
2023-05-01T15:22:44.232Z,99848.44
2023-05-01T15:25:11.867Z,99848.72
2023-05-01T15:27:39.373Z,99847.72
2023-05-01T15:30:10.165Z,99846.91
2023-05-01T15:32:38.455Z,99851.34
2023-05-01T15:35:06.446Z,99844.06
2023-05-01T15:37:35.303Z,99841.16
2023-05-01T15:40:04.297Z,99841.28
2023-05-01T15:42:31.861Z,99845.31
2023-05-01T15:45:00.185Z,99840.69
2023-05-01T15:47:28.303Z,99845.88
2023-05-01T15:49:56.100Z,99848.75
2023-05-01T15:52:25.105Z,99832.97
2023-05-01T15:54:54.922Z,99840.97
2023-05-01T15:57:22.478Z,99841.38
2023-05-01T15:59:53.774Z,99839.03
2023-05-01T16:02:21.762Z,99840.31
2023-05-01T16:04:49.649Z,99839.88
2023-05-01T16:07:17.181Z,99835.03
2023-05-01T16:09:44.842Z,99828.84
2023-05-01T16:12:14.030Z,99831.50
2023-05-01T16:14:42.090Z,99831.88
2023-05-01T16:17:10.091Z,99840.66
2023-05-01T16:19:37.626Z,99828.00
2023-05-01T16:22:06.899Z,99832.75
2023-05-01T16:24:34.541Z,99837.91
2023-05-01T16:27:02.038Z,99832.34
2023-05-01T16:29:33.205Z,99831.09
2023-05-01T16:32:01.023Z,99828.16
2023-05-01T16:34:29.010Z,99837.91
2023-05-01T16:36:56.654Z,99838.09
2023-05-01T16:39:24.329Z,99837.63
2023-05-01T16:41:53.434Z,99833.59
2023-05-01T16:44:22.149Z,99841.50
2023-05-01T16:46:53.672Z,99834.94
2023-05-01T16:49:21.856Z,99836.91
2023-05-01T16:51:49.621Z,99839.44
2023-05-01T16:54:17.336Z,99834.72
2023-05-01T16:56:44.838Z,99834.47
2023-05-01T16:59:12.343Z,99836.31
2023-05-01T17:01:39.890Z,99835.31
2023-05-01T17:04:09.925Z,99837.06
2023-05-01T17:06:37.452Z,99833.25
2023-05-01T17:09:04.971Z,99841.66
2023-05-01T17:11:32.438Z,99841.19
2023-05-01T17:13:59.957Z,99838.16
2023-05-01T17:16:27.601Z,99838.69
2023-05-01T17:18:55.232Z,99840.81
2023-05-01T17:21:25.093Z,99836.06
2023-05-01T17:23:52.715Z,99838.81
2023-05-01T17:26:20.181Z,99834.50
2023-05-01T17:28:49.043Z,99841.75
2023-05-01T17:31:18.257Z,99846.19
2023-05-01T17:33:46.824Z,99843.28
2023-05-01T17:36:14.389Z,99842.63
2023-05-01T17:38:43.219Z,99842.63
2023-05-01T17:41:10.686Z,99845.66
2023-05-01T17:43:38.418Z,99835.75
2023-05-01T17:46:06.870Z,99844.22
2023-05-01T17:48:34.371Z,99837.34
2023-05-01T17:51:01.856Z,99839.34
2023-05-01T17:53:29.360Z,99850.94
2023-05-01T17:55:58.292Z,99853.19
2023-05-01T17:58:25.814Z,99837.59
2023-05-01T18:00:55.433Z,99845.81
2023-05-01T18:03:24.069Z,99844.81
2023-05-01T18:05:51.622Z,99838.78
2023-05-01T18:08:19.127Z,99842.94
2023-05-01T18:10:46.609Z,99846.28
2023-05-01T18:13:16.730Z,99842.47
2023-05-01T18:15:44.312Z,99834.16
2023-05-01T18:18:12.488Z,99844.66
2023-05-01T18:20:40.355Z,99847.19
2023-05-01T18:23:07.914Z,99843.25
2023-05-01T18:25:35.565Z,99848.22
2023-05-01T18:28:03.076Z,99854.13
2023-05-01T18:30:31.901Z,99857.59
2023-05-01T18:32:59.475Z,99862.75
2023-05-01T18:35:26.953Z,99866.03
2023-05-01T18:37:54.841Z,99861.84
2023-05-01T18:40:22.327Z,99863.53
2023-05-01T18:42:49.816Z,99868.16
2023-05-01T18:45:17.593Z,99866.03
2023-05-01T18:47:46.505Z,99860.16
2023-05-01T18:50:14.203Z,99861.84
2023-05-01T18:52:42.703Z,99867.84
2023-05-01T18:55:11.279Z,99875.75
2023-05-01T18:57:41.924Z,99870.19
2023-05-01T19:00:10.575Z,99879.47
2023-05-01T19:02:38.090Z,99875.03
2023-05-01T19:05:08.446Z,99875.06
2023-05-01T19:07:36.007Z,99877.19
2023-05-01T19:10:03.725Z,99878.56
2023-05-01T19:12:31.228Z,99878.88
2023-05-01T19:14:58.710Z,99882.31
2023-05-01T19:17:27.709Z,99883.19
2023-05-01T19:19:55.318Z,99884.34
2023-05-01T19:22:24.202Z,99889.66
2023-05-01T19:24:51.714Z,99891.50
2023-05-01T19:27:19.246Z,99888.00
2023-05-01T19:29:46.727Z,99883.09
2023-05-01T19:32:14.436Z,99880.91
2023-05-01T19:34:42.534Z,99889.88
2023-05-01T19:37:10.073Z,99888.91
2023-05-01T19:39:39.751Z,99887.16
2023-05-01T19:42:07.361Z,99897.59
2023-05-01T19:44:34.905Z,99896.78
2023-05-01T19:47:02.451Z,99900.91
2023-05-01T19:49:29.963Z,99899.16
2023-05-01T19:51:57.616Z,99904.84
2023-05-01T19:54:26.975Z,99900.81
2023-05-01T19:56:55.961Z,99907.72
2023-05-01T19:59:23.621Z,99901.69
2023-05-01T20:01:51.628Z,99906.47
2023-05-01T20:04:19.414Z,99905.84
2023-05-01T20:06:47.028Z,99912.28
2023-05-01T20:09:14.675Z,99916.66
2023-05-01T20:11:42.175Z,99917.06
2023-05-01T20:14:11.165Z,99915.47
2023-05-01T20:16:38.774Z,99915.66
2023-05-01T20:19:06.346Z,99907.91
2023-05-01T20:21:33.920Z,99914.56
2023-05-01T20:24:01.418Z,99915.28
2023-05-01T20:26:28.980Z,99914.88
2023-05-01T20:28:56.720Z,99914.22
2023-05-01T20:31:25.604Z,99914.22
2023-05-01T20:33:53.202Z,99920.38
2023-05-01T20:36:20.717Z,99922.22
2023-05-01T20:38:48.646Z,99920.34
2023-05-01T20:41:16.151Z,99921.47
2023-05-01T20:43:43.635Z,99931.09
2023-05-01T20:46:11.183Z,99925.50
2023-05-01T20:48:40.249Z,99924.88
2023-05-01T20:51:07.728Z,99920.38
2023-05-01T20:53:35.235Z,99912.88
2023-05-01T20:56:02.731Z,99918.63
2023-05-01T20:58:30.392Z,99926.66
2023-05-01T21:00:59.166Z,99925.91
2023-05-01T21:03:26.866Z,99927.06
2023-05-01T21:05:59.682Z,99966.25
2023-05-01T21:08:28.188Z,99963.72
2023-05-01T21:10:55.903Z,99958.34
2023-05-01T21:13:24.964Z,99959.91
2023-05-01T21:15:52.984Z,99958.00
2023-05-01T21:18:21.475Z,99964.13
2023-05-01T21:20:48.995Z,99965.88
2023-05-01T21:23:18.604Z,99964.34
2023-05-01T21:25:46.126Z,99960.59
2023-05-01T21:28:14.579Z,99967.34
2023-05-01T21:30:42.266Z,99959.22
2023-05-01T21:33:14.469Z,99970.81
2023-05-01T21:35:43.123Z,99970.56
2023-05-01T21:38:11.006Z,99974.84
2023-05-01T21:40:42.347Z,99967.25
2023-05-01T21:43:10.747Z,99975.56
2023-05-01T21:45:41.084Z,99963.88
2023-05-01T21:48:09.142Z,99961.28
2023-05-01T21:50:38.017Z,99964.97
2023-05-01T21:53:07.234Z,99954.88
2023-05-01T21:55:34.897Z,99963.91
2023-05-01T21:58:04.025Z,99962.09
2023-05-01T22:00:31.757Z,99968.25
2023-05-01T22:02:59.381Z,99972.03
2023-05-01T22:05:30.795Z,99958.44
2023-05-01T22:07:58.645Z,99967.94
2023-05-01T22:10:26.295Z,99964.91
2023-05-01T22:12:53.838Z,99966.38
2023-05-01T22:15:22.631Z,99961.69
2023-05-01T22:17:50.187Z,99971.44
2023-05-01T22:20:17.804Z,99979.25
2023-05-01T22:22:45.983Z,99982.06
2023-05-01T22:25:13.526Z,99981.91
2023-05-01T22:27:41.742Z,99985.59
2023-05-01T22:30:10.241Z,99981.91
2023-05-01T22:32:39.235Z,99991.22
2023-05-01T22:35:08.402Z,99994.09
2023-05-01T22:37:35.976Z,100005.44
2023-05-01T22:40:04.109Z,100014.63
2023-05-01T22:42:31.754Z,100011.38
2023-05-01T22:44:59.265Z,100017.06
2023-05-01T22:47:26.855Z,100015.03
2023-05-01T22:49:55.663Z,100021.03
2023-05-01T22:52:23.268Z,100034.44
2023-05-01T22:54:52.507Z,100028.34
2023-05-01T22:57:20.012Z,100032.22
2023-05-01T22:59:48.165Z,100035.47
2023-05-01T23:02:17.373Z,100036.00
2023-05-01T23:04:45.145Z,100044.41
2023-05-01T23:07:15.842Z,100044.50
2023-05-01T23:09:43.328Z,100049.50
2023-05-01T23:12:16.378Z,100054.50
2023-05-01T23:14:46.375Z,100046.50
2023-05-01T23:17:14.212Z,100058.16
2023-05-01T23:19:43.342Z,100066.56
2023-05-01T23:22:12.988Z,100070.91
2023-05-01T23:24:44.792Z,100064.56
2023-05-01T23:27:13.406Z,100065.13
2023-05-01T23:29:41.207Z,100068.09
2023-05-01T23:32:09.930Z,100068.03
2023-05-01T23:34:37.966Z,100071.69
2023-05-01T23:37:06.469Z,100067.81
2023-05-01T23:39:33.965Z,100074.00
2023-05-01T23:42:03.303Z,100072.91
2023-05-01T23:44:30.960Z,100078.22
2023-05-01T23:46:58.498Z,100086.44
2023-05-01T23:49:26.056Z,100085.19
2023-05-01T23:51:53.596Z,100091.59
2023-05-01T23:54:21.082Z,100085.38
2023-05-01T23:56:48.590Z,100090.97
2023-05-01T23:59:17.393Z,100089.59
